sensor_id;sensor_type;location;lat;lon;timestamp;temperature;humidity
78289;DHT22;67539;48.752;12.922;2023-10-13T00:01:56;15.50;99.90
78289;DHT22;67539;48.752;12.922;2023-10-13T00:04:28;15.50;99.90
78289;DHT22;67539;48.752;12.922;2023-10-13T00:06:59;15.40;99.90
78289;DHT22;67539;48.752;12.922;2023-10-13T00:09:29;15.40;99.90
78289;DHT22;67539;48.752;12.922;2023-10-13T00:12:00;15.40;99.90
78289;DHT22;67539;48.752;12.922;2023-10-13T00:14:28;15.30;99.90
78289;DHT22;67539;48.752;12.922;2023-10-13T00:17:00;15.30;99.90
78289;DHT22;67539;48.752;12.922;2023-10-13T00:19:33;15.20;99.90
78289;DHT22;67539;48.752;12.922;2023-10-13T00:22:07;15.20;99.90
78289;DHT22;67539;48.752;12.922;2023-10-13T00:24:40;15.20;99.90
78289;DHT22;67539;48.752;12.922;2023-10-13T00:27:13;15.20;99.90
78289;DHT22;67539;48.752;12.922;2023-10-13T00:29:58;15.20;99.90
78289;DHT22;67539;48.752;12.922;2023-10-13T00:32:50;15.20;99.90
78289;DHT22;67539;48.752;12.922;2023-10-13T00:35:25;15.20;99.90
78289;DHT22;67539;48.752;12.922;2023-10-13T00:37:56;15.20;99.90
78289;DHT22;67539;48.752;12.922;2023-10-13T00:40:26;15.20;99.90
78289;DHT22;67539;48.752;12.922;2023-10-13T00:43:10;15.20;99.90
78289;DHT22;67539;48.752;12.922;2023-10-13T00:45:58;15.20;99.90
78289;DHT22;67539;48.752;12.922;2023-10-13T00:48:36;15.10;99.90
78289;DHT22;67539;48.752;12.922;2023-10-13T00:51:12;15.10;99.90
78289;DHT22;67539;48.752;12.922;2023-10-13T00:54:02;15.00;99.90
78289;DHT22;67539;48.752;12.922;2023-10-13T00:56:34;15.00;99.90
78289;DHT22;67539;48.752;12.922;2023-10-13T00:59:08;15.00;99.90
78289;DHT22;67539;48.752;12.922;2023-10-13T01:01:37;15.00;99.90
78289;DHT22;67539;48.752;12.922;2023-10-13T01:04:09;14.90;99.90
78289;DHT22;67539;48.752;12.922;2023-10-13T01:06:40;14.90;99.90
78289;DHT22;67539;48.752;12.922;2023-10-13T01:09:10;14.90;99.90
78289;DHT22;67539;48.752;12.922;2023-10-13T01:11:42;14.90;99.90
78289;DHT22;67539;48.752;12.922;2023-10-13T01:14:12;14.90;99.90
78289;DHT22;67539;48.752;12.922;2023-10-13T01:16:42;14.80;99.90
78289;DHT22;67539;48.752;12.922;2023-10-13T01:19:11;14.80;99.90
78289;DHT22;67539;48.752;12.922;2023-10-13T01:21:41;14.80;99.90
78289;DHT22;67539;48.752;12.922;2023-10-13T01:24:11;14.80;99.90
78289;DHT22;67539;48.752;12.922;2023-10-13T01:26:42;14.80;99.90
78289;DHT22;67539;48.752;12.922;2023-10-13T01:29:11;14.80;99.90
78289;DHT22;67539;48.752;12.922;2023-10-13T01:31:41;14.80;99.90
78289;DHT22;67539;48.752;12.922;2023-10-13T01:34:14;14.90;99.90
78289;DHT22;67539;48.752;12.922;2023-10-13T01:36:50;14.90;99.90
78289;DHT22;67539;48.752;12.922;2023-10-13T01:39:21;14.90;99.90
78289;DHT22;67539;48.752;12.922;2023-10-13T01:41:53;14.90;99.90
78289;DHT22;67539;48.752;12.922;2023-10-13T01:44:23;14.80;99.90
78289;DHT22;67539;48.752;12.922;2023-10-13T01:46:55;14.80;99.90
78289;DHT22;67539;48.752;12.922;2023-10-13T01:49:22;14.80;99.90
78289;DHT22;67539;48.752;12.922;2023-10-13T01:51:51;14.70;99.90
78289;DHT22;67539;48.752;12.922;2023-10-13T01:54:19;14.70;99.90
78289;DHT22;67539;48.752;12.922;2023-10-13T01:56:48;14.80;99.90
78289;DHT22;67539;48.752;12.922;2023-10-13T01:59:17;14.80;99.90
78289;DHT22;67539;48.752;12.922;2023-10-13T02:01:46;14.70;99.90
78289;DHT22;67539;48.752;12.922;2023-10-13T02:04:13;14.70;99.90
78289;DHT22;67539;48.752;12.922;2023-10-13T02:06:42;14.70;99.90
78289;DHT22;67539;48.752;12.922;2023-10-13T02:09:10;14.60;99.90
78289;DHT22;67539;48.752;12.922;2023-10-13T02:11:43;14.60;99.90
78289;DHT22;67539;48.752;12.922;2023-10-13T02:14:13;14.60;99.90
78289;DHT22;67539;48.752;12.922;2023-10-13T02:16:43;14.50;99.90
78289;DHT22;67539;48.752;12.922;2023-10-13T02:19:14;14.50;99.90
78289;DHT22;67539;48.752;12.922;2023-10-13T02:21:46;14.50;99.90
78289;DHT22;67539;48.752;12.922;2023-10-13T02:24:25;14.50;99.90
78289;DHT22;67539;48.752;12.922;2023-10-13T02:26:58;14.60;99.90
78289;DHT22;67539;48.752;12.922;2023-10-13T02:29:29;14.60;99.90
78289;DHT22;67539;48.752;12.922;2023-10-13T02:31:57;14.50;99.90
78289;DHT22;67539;48.752;12.922;2023-10-13T02:34:25;14.50;99.90
78289;DHT22;67539;48.752;12.922;2023-10-13T02:36:53;14.50;99.90
78289;DHT22;67539;48.752;12.922;2023-10-13T02:39:21;14.50;99.90
78289;DHT22;67539;48.752;12.922;2023-10-13T02:41:54;14.50;99.90
78289;DHT22;67539;48.752;12.922;2023-10-13T02:44:24;14.50;99.90
78289;DHT22;67539;48.752;12.922;2023-10-13T02:46:57;14.40;99.90
78289;DHT22;67539;48.752;12.922;2023-10-13T02:49:26;14.40;99.90
78289;DHT22;67539;48.752;12.922;2023-10-13T02:51:59;14.40;99.90
78289;DHT22;67539;48.752;12.922;2023-10-13T02:54:32;14.40;99.90
78289;DHT22;67539;48.752;12.922;2023-10-13T02:57:06;14.30;99.90
78289;DHT22;67539;48.752;12.922;2023-10-13T02:59:36;14.30;99.90
78289;DHT22;67539;48.752;12.922;2023-10-13T03:02:07;14.30;99.90
78289;DHT22;67539;48.752;12.922;2023-10-13T03:04:47;14.30;99.90
78289;DHT22;67539;48.752;12.922;2023-10-13T03:07:14;14.40;99.90
78289;DHT22;67539;48.752;12.922;2023-10-13T03:09:50;14.30;99.90
78289;DHT22;67539;48.752;12.922;2023-10-13T03:12:19;14.30;99.90
78289;DHT22;67539;48.752;12.922;2023-10-13T03:14:50;14.30;99.90
78289;DHT22;67539;48.752;12.922;2023-10-13T03:17:22;14.30;99.90
78289;DHT22;67539;48.752;12.922;2023-10-13T03:20:00;14.20;99.90
78289;DHT22;67539;48.752;12.922;2023-10-13T03:22:27;14.20;99.90
78289;DHT22;67539;48.752;12.922;2023-10-13T03:24:59;14.20;99.90
78289;DHT22;67539;48.752;12.922;2023-10-13T03:27:32;14.10;99.90
78289;DHT22;67539;48.752;12.922;2023-10-13T03:30:10;14.10;99.90
78289;DHT22;67539;48.752;12.922;2023-10-13T03:32:42;14.00;99.90
78289;DHT22;67539;48.752;12.922;2023-10-13T03:35:13;14.00;99.90
78289;DHT22;67539;48.752;12.922;2023-10-13T03:37:51;14.00;99.90
78289;DHT22;67539;48.752;12.922;2023-10-13T03:40:20;14.00;99.90
78289;DHT22;67539;48.752;12.922;2023-10-13T03:43:04;14.00;99.90
78289;DHT22;67539;48.752;12.922;2023-10-13T03:45:38;14.00;99.90
78289;DHT22;67539;48.752;12.922;2023-10-13T03:48:08;13.90;99.90
78289;DHT22;67539;48.752;12.922;2023-10-13T03:50:39;13.90;99.90
78289;DHT22;67539;48.752;12.922;2023-10-13T03:53:15;13.90;99.90
78289;DHT22;67539;48.752;12.922;2023-10-13T03:55:44;13.80;99.90
78289;DHT22;67539;48.752;12.922;2023-10-13T03:58:15;13.90;99.90
78289;DHT22;67539;48.752;12.922;2023-10-13T04:00:46;13.80;99.90
78289;DHT22;67539;48.752;12.922;2023-10-13T04:03:15;13.80;99.90
78289;DHT22;67539;48.752;12.922;2023-10-13T04:05:45;13.70;99.90
78289;DHT22;67539;48.752;12.922;2023-10-13T04:08:28;13.70;99.90
78289;DHT22;67539;48.752;12.922;2023-10-13T04:11:13;13.80;99.90
78289;DHT22;67539;48.752;12.922;2023-10-13T04:13:59;13.70;99.90
78289;DHT22;67539;48.752;12.922;2023-10-13T04:16:52;13.70;99.90
78289;DHT22;67539;48.752;12.922;2023-10-13T04:19:21;13.70;99.90
78289;DHT22;67539;48.752;12.922;2023-10-13T04:21:56;13.70;99.90
78289;DHT22;67539;48.752;12.922;2023-10-13T04:24:27;13.80;99.90
78289;DHT22;67539;48.752;12.922;2023-10-13T04:27:10;13.70;99.90
78289;DHT22;67539;48.752;12.922;2023-10-13T04:29:56;13.70;99.90
78289;DHT22;67539;48.752;12.922;2023-10-13T04:32:39;13.70;99.90
78289;DHT22;67539;48.752;12.922;2023-10-13T04:35:16;13.70;99.90
78289;DHT22;67539;48.752;12.922;2023-10-13T04:37:46;13.70;99.90
78289;DHT22;67539;48.752;12.922;2023-10-13T04:40:25;13.70;99.90
78289;DHT22;67539;48.752;12.922;2023-10-13T04:42:54;13.70;99.90
78289;DHT22;67539;48.752;12.922;2023-10-13T04:45:24;13.70;99.90
78289;DHT22;67539;48.752;12.922;2023-10-13T04:48:15;13.70;99.90
78289;DHT22;67539;48.752;12.922;2023-10-13T04:51:00;13.70;99.90
78289;DHT22;67539;48.752;12.922;2023-10-13T04:53:42;13.70;99.90
78289;DHT22;67539;48.752;12.922;2023-10-13T04:56:24;13.70;99.90
78289;DHT22;67539;48.752;12.922;2023-10-13T04:59:10;13.80;99.90
78289;DHT22;67539;48.752;12.922;2023-10-13T05:02:02;13.70;99.90
78289;DHT22;67539;48.752;12.922;2023-10-13T05:04:50;13.80;99.90
78289;DHT22;67539;48.752;12.922;2023-10-13T05:07:49;13.80;99.90
78289;DHT22;67539;48.752;12.922;2023-10-13T05:10:36;13.80;99.90
78289;DHT22;67539;48.752;12.922;2023-10-13T05:13:22;13.80;99.90
78289;DHT22;67539;48.752;12.922;2023-10-13T05:16:07;13.80;99.90
78289;DHT22;67539;48.752;12.922;2023-10-13T05:18:53;13.80;99.90
78289;DHT22;67539;48.752;12.922;2023-10-13T05:21:40;13.80;99.90
78289;DHT22;67539;48.752;12.922;2023-10-13T05:24:26;13.80;99.90
78289;DHT22;67539;48.752;12.922;2023-10-13T05:27:12;13.80;99.90
78289;DHT22;67539;48.752;12.922;2023-10-13T05:29:57;13.80;99.90
78289;DHT22;67539;48.752;12.922;2023-10-13T05:32:43;13.80;99.90
78289;DHT22;67539;48.752;12.922;2023-10-13T05:35:31;13.80;99.90
78289;DHT22;67539;48.752;12.922;2023-10-13T05:38:18;13.90;99.90
78289;DHT22;67539;48.752;12.922;2023-10-13T05:41:05;13.90;99.90
78289;DHT22;67539;48.752;12.922;2023-10-13T05:43:52;13.90;99.90
78289;DHT22;67539;48.752;12.922;2023-10-13T05:46:38;13.90;99.90
78289;DHT22;67539;48.752;12.922;2023-10-13T05:49:50;13.90;99.90
78289;DHT22;67539;48.752;12.922;2023-10-13T05:52:19;13.90;99.90
78289;DHT22;67539;48.752;12.922;2023-10-13T05:55:09;13.90;99.90
78289;DHT22;67539;48.752;12.922;2023-10-13T05:57:55;13.90;99.90
78289;DHT22;67539;48.752;12.922;2023-10-13T06:00:41;14.00;99.90
78289;DHT22;67539;48.752;12.922;2023-10-13T06:03:27;14.00;99.90
78289;DHT22;67539;48.752;12.922;2023-10-13T06:06:12;14.00;99.90
78289;DHT22;67539;48.752;12.922;2023-10-13T06:08:58;14.00;99.90
78289;DHT22;67539;48.752;12.922;2023-10-13T06:11:45;14.10;99.90
78289;DHT22;67539;48.752;12.922;2023-10-13T06:14:31;14.10;99.90
78289;DHT22;67539;48.752;12.922;2023-10-13T06:17:17;14.20;99.90
78289;DHT22;67539;48.752;12.922;2023-10-13T06:20:04;14.20;99.90
78289;DHT22;67539;48.752;12.922;2023-10-13T06:22:49;14.30;99.90
78289;DHT22;67539;48.752;12.922;2023-10-13T06:25:35;14.30;99.90
78289;DHT22;67539;48.752;12.922;2023-10-13T06:28:22;14.40;99.90
78289;DHT22;67539;48.752;12.922;2023-10-13T06:31:10;14.50;99.90
78289;DHT22;67539;48.752;12.922;2023-10-13T06:33:48;14.60;99.90
78289;DHT22;67539;48.752;12.922;2023-10-13T06:36:18;14.70;99.90
78289;DHT22;67539;48.752;12.922;2023-10-13T06:38:48;14.70;99.90
78289;DHT22;67539;48.752;12.922;2023-10-13T06:41:23;14.80;99.90
78289;DHT22;67539;48.752;12.922;2023-10-13T06:44:08;14.90;99.90
78289;DHT22;67539;48.752;12.922;2023-10-13T06:46:42;15.00;99.90
78289;DHT22;67539;48.752;12.922;2023-10-13T06:49:11;15.00;99.90
78289;DHT22;67539;48.752;12.922;2023-10-13T06:51:40;15.20;99.90
78289;DHT22;67539;48.752;12.922;2023-10-13T06:54:08;15.20;99.90
78289;DHT22;67539;48.752;12.922;2023-10-13T06:56:46;15.30;99.90
78289;DHT22;67539;48.752;12.922;2023-10-13T06:59:19;15.30;99.90
78289;DHT22;67539;48.752;12.922;2023-10-13T07:01:53;15.50;99.90
78289;DHT22;67539;48.752;12.922;2023-10-13T07:04:46;15.50;99.90
78289;DHT22;67539;48.752;12.922;2023-10-13T07:07:15;15.60;99.90
78289;DHT22;67539;48.752;12.922;2023-10-13T07:09:43;15.60;99.90
78289;DHT22;67539;48.752;12.922;2023-10-13T07:12:16;15.70;99.90
78289;DHT22;67539;48.752;12.922;2023-10-13T07:14:50;15.70;99.90
78289;DHT22;67539;48.752;12.922;2023-10-13T07:17:26;15.80;99.90
78289;DHT22;67539;48.752;12.922;2023-10-13T07:20:00;15.80;99.90
78289;DHT22;67539;48.752;12.922;2023-10-13T07:22:42;15.90;99.90
78289;DHT22;67539;48.752;12.922;2023-10-13T07:25:22;15.90;99.90
78289;DHT22;67539;48.752;12.922;2023-10-13T07:27:53;16.00;99.90
78289;DHT22;67539;48.752;12.922;2023-10-13T07:30:26;16.00;99.90
78289;DHT22;67539;48.752;12.922;2023-10-13T07:32:55;16.10;99.90
78289;DHT22;67539;48.752;12.922;2023-10-13T07:35:27;16.20;99.90
78289;DHT22;67539;48.752;12.922;2023-10-13T07:37:58;16.20;99.90
78289;DHT22;67539;48.752;12.922;2023-10-13T07:40:27;16.30;99.90
78289;DHT22;67539;48.752;12.922;2023-10-13T07:43:07;16.30;99.90
78289;DHT22;67539;48.752;12.922;2023-10-13T07:45:40;16.40;99.90
78289;DHT22;67539;48.752;12.922;2023-10-13T07:48:11;16.50;99.90
78289;DHT22;67539;48.752;12.922;2023-10-13T07:50:52;16.60;99.90
78289;DHT22;67539;48.752;12.922;2023-10-13T07:53:28;16.70;99.90
78289;DHT22;67539;48.752;12.922;2023-10-13T07:56:02;16.80;99.90
78289;DHT22;67539;48.752;12.922;2023-10-13T07:58:32;16.90;99.90
78289;DHT22;67539;48.752;12.922;2023-10-13T08:01:02;17.00;99.90
78289;DHT22;67539;48.752;12.922;2023-10-13T08:03:44;17.10;99.90
78289;DHT22;67539;48.752;12.922;2023-10-13T08:06:14;17.20;99.90
78289;DHT22;67539;48.752;12.922;2023-10-13T08:08:53;17.30;99.90
78289;DHT22;67539;48.752;12.922;2023-10-13T08:11:26;17.40;99.90
78289;DHT22;67539;48.752;12.922;2023-10-13T08:14:00;17.40;99.90
78289;DHT22;67539;48.752;12.922;2023-10-13T08:16:58;17.50;99.90
78289;DHT22;67539;48.752;12.922;2023-10-13T08:19:28;17.60;99.90
78289;DHT22;67539;48.752;12.922;2023-10-13T08:22:09;17.70;99.90
78289;DHT22;67539;48.752;12.922;2023-10-13T08:24:53;17.80;99.90
78289;DHT22;67539;48.752;12.922;2023-10-13T08:27:42;17.90;99.90
78289;DHT22;67539;48.752;12.922;2023-10-13T08:30:17;17.90;99.90
78289;DHT22;67539;48.752;12.922;2023-10-13T08:32:57;18.00;99.90
78289;DHT22;67539;48.752;12.922;2023-10-13T08:35:31;18.10;99.90
78289;DHT22;67539;48.752;12.922;2023-10-13T08:38:03;18.20;99.90
78289;DHT22;67539;48.752;12.922;2023-10-13T08:40:59;18.30;99.90
78289;DHT22;67539;48.752;12.922;2023-10-13T08:43:45;18.40;99.90
78289;DHT22;67539;48.752;12.922;2023-10-13T08:46:19;18.40;99.90
78289;DHT22;67539;48.752;12.922;2023-10-13T08:48:58;18.50;99.90
78289;DHT22;67539;48.752;12.922;2023-10-13T08:51:43;18.60;99.90
78289;DHT22;67539;48.752;12.922;2023-10-13T08:54:13;18.70;99.90
78289;DHT22;67539;48.752;12.922;2023-10-13T08:57:02;18.70;99.90
78289;DHT22;67539;48.752;12.922;2023-10-13T09:00:00;18.80;99.90
78289;DHT22;67539;48.752;12.922;2023-10-13T09:02:42;18.90;99.90
78289;DHT22;67539;48.752;12.922;2023-10-13T09:05:44;19.00;99.90
78289;DHT22;67539;48.752;12.922;2023-10-13T09:08:28;19.10;99.90
78289;DHT22;67539;48.752;12.922;2023-10-13T09:11:03;19.10;99.90
78289;DHT22;67539;48.752;12.922;2023-10-13T09:13:40;19.20;99.90
78289;DHT22;67539;48.752;12.922;2023-10-13T09:16:14;19.30;99.90
78289;DHT22;67539;48.752;12.922;2023-10-13T09:18:49;19.40;99.90
78289;DHT22;67539;48.752;12.922;2023-10-13T09:21:21;19.50;99.90
78289;DHT22;67539;48.752;12.922;2023-10-13T09:24:12;19.60;99.90
78289;DHT22;67539;48.752;12.922;2023-10-13T09:26:58;19.60;99.90
78289;DHT22;67539;48.752;12.922;2023-10-13T09:29:28;19.80;99.90
78289;DHT22;67539;48.752;12.922;2023-10-13T09:32:01;19.80;99.90
78289;DHT22;67539;48.752;12.922;2023-10-13T09:34:31;19.90;99.90
78289;DHT22;67539;48.752;12.922;2023-10-13T09:37:03;20.00;99.90
78289;DHT22;67539;48.752;12.922;2023-10-13T09:39:32;20.10;99.90
78289;DHT22;67539;48.752;12.922;2023-10-13T09:42:12;20.10;99.90
78289;DHT22;67539;48.752;12.922;2023-10-13T09:44:45;20.20;99.90
78289;DHT22;67539;48.752;12.922;2023-10-13T09:47:27;20.30;99.90
78289;DHT22;67539;48.752;12.922;2023-10-13T09:50:08;20.40;99.90
78289;DHT22;67539;48.752;12.922;2023-10-13T09:52:45;20.50;99.90
78289;DHT22;67539;48.752;12.922;2023-10-13T09:55:21;20.50;99.90
78289;DHT22;67539;48.752;12.922;2023-10-13T09:57:54;20.60;99.90
78289;DHT22;67539;48.752;12.922;2023-10-13T10:00:29;20.60;99.90
78289;DHT22;67539;48.752;12.922;2023-10-13T10:03:15;20.70;99.90
78289;DHT22;67539;48.752;12.922;2023-10-13T10:05:59;20.70;99.90
78289;DHT22;67539;48.752;12.922;2023-10-13T10:08:34;20.80;99.90
78289;DHT22;67539;48.752;12.922;2023-10-13T10:11:42;20.90;99.90
78289;DHT22;67539;48.752;12.922;2023-10-13T10:14:16;21.00;99.90
78289;DHT22;67539;48.752;12.922;2023-10-13T10:17:00;21.10;99.70
78289;DHT22;67539;48.752;12.922;2023-10-13T10:19:46;21.20;99.70
78289;DHT22;67539;48.752;12.922;2023-10-13T10:22:25;21.20;99.60
78289;DHT22;67539;48.752;12.922;2023-10-13T10:24:59;21.30;99.90
78289;DHT22;67539;48.752;12.922;2023-10-13T10:27:30;21.30;99.90
78289;DHT22;67539;48.752;12.922;2023-10-13T10:29:59;21.40;99.20
78289;DHT22;67539;48.752;12.922;2023-10-13T10:32:37;21.50;97.60
78289;DHT22;67539;48.752;12.922;2023-10-13T10:35:10;21.60;98.90
78289;DHT22;67539;48.752;12.922;2023-10-13T10:37:47;21.70;98.90
78289;DHT22;67539;48.752;12.922;2023-10-13T10:40:18;21.80;99.20
78289;DHT22;67539;48.752;12.922;2023-10-13T10:43:00;21.90;98.60
78289;DHT22;67539;48.752;12.922;2023-10-13T10:45:48;21.90;98.70
78289;DHT22;67539;48.752;12.922;2023-10-13T10:48:19;22.10;98.10
78289;DHT22;67539;48.752;12.922;2023-10-13T10:50:51;22.10;97.10
78289;DHT22;67539;48.752;12.922;2023-10-13T10:53:21;22.20;98.10
78289;DHT22;67539;48.752;12.922;2023-10-13T10:56:08;22.30;98.20
78289;DHT22;67539;48.752;12.922;2023-10-13T10:58:47;22.40;98.40
78289;DHT22;67539;48.752;12.922;2023-10-13T11:01:16;22.50;98.30
78289;DHT22;67539;48.752;12.922;2023-10-13T11:03:59;22.50;98.30
78289;DHT22;67539;48.752;12.922;2023-10-13T11:06:35;22.60;98.10
78289;DHT22;67539;48.752;12.922;2023-10-13T11:09:10;22.70;97.50
78289;DHT22;67539;48.752;12.922;2023-10-13T11:11:49;22.70;97.10
78289;DHT22;67539;48.752;12.922;2023-10-13T11:14:21;22.80;97.20
78289;DHT22;67539;48.752;12.922;2023-10-13T11:16:52;22.80;97.10
78289;DHT22;67539;48.752;12.922;2023-10-13T11:19:33;22.90;97.00
78289;DHT22;67539;48.752;12.922;2023-10-13T11:22:10;22.90;97.20
78289;DHT22;67539;48.752;12.922;2023-10-13T11:24:41;23.00;96.70
78289;DHT22;67539;48.752;12.922;2023-10-13T11:27:15;23.10;97.10
78289;DHT22;67539;48.752;12.922;2023-10-13T11:29:48;23.10;97.20
78289;DHT22;67539;48.752;12.922;2023-10-13T11:32:19;23.20;96.80
78289;DHT22;67539;48.752;12.922;2023-10-13T11:34:49;23.30;96.60
78289;DHT22;67539;48.752;12.922;2023-10-13T11:37:22;23.30;96.60
78289;DHT22;67539;48.752;12.922;2023-10-13T11:40:06;23.40;96.40
78289;DHT22;67539;48.752;12.922;2023-10-13T11:42:44;23.50;96.20
78289;DHT22;67539;48.752;12.922;2023-10-13T11:45:14;23.50;96.70
78289;DHT22;67539;48.752;12.922;2023-10-13T11:47:56;23.60;96.20
78289;DHT22;67539;48.752;12.922;2023-10-13T11:50:27;23.70;96.40
78289;DHT22;67539;48.752;12.922;2023-10-13T11:53:01;23.70;95.50
78289;DHT22;67539;48.752;12.922;2023-10-13T11:55:35;23.70;94.80
78289;DHT22;67539;48.752;12.922;2023-10-13T11:58:05;23.80;95.00
78289;DHT22;67539;48.752;12.922;2023-10-13T12:00:34;23.80;95.20
78289;DHT22;67539;48.752;12.922;2023-10-13T12:03:16;23.90;95.10
78289;DHT22;67539;48.752;12.922;2023-10-13T12:06:02;23.90;94.50
78289;DHT22;67539;48.752;12.922;2023-10-13T12:08:46;24.00;95.10
78289;DHT22;67539;48.752;12.922;2023-10-13T12:11:19;24.00;95.10
78289;DHT22;67539;48.752;12.922;2023-10-13T12:14:00;24.10;94.40
78289;DHT22;67539;48.752;12.922;2023-10-13T12:16:38;24.10;94.50
78289;DHT22;67539;48.752;12.922;2023-10-13T12:19:07;24.20;94.80
78289;DHT22;67539;48.752;12.922;2023-10-13T12:21:38;24.30;95.00
78289;DHT22;67539;48.752;12.922;2023-10-13T12:24:08;24.30;94.10
78289;DHT22;67539;48.752;12.922;2023-10-13T12:26:49;24.40;94.00
78289;DHT22;67539;48.752;12.922;2023-10-13T12:29:27;24.40;93.80
78289;DHT22;67539;48.752;12.922;2023-10-13T12:31:56;24.40;93.80
78289;DHT22;67539;48.752;12.922;2023-10-13T12:34:35;24.50;93.80
78289;DHT22;67539;48.752;12.922;2023-10-13T12:37:22;24.50;93.90
78289;DHT22;67539;48.752;12.922;2023-10-13T12:40:07;24.60;94.20
78289;DHT22;67539;48.752;12.922;2023-10-13T12:42:53;24.70;94.30
78289;DHT22;67539;48.752;12.922;2023-10-13T12:45:41;24.80;93.70
78289;DHT22;67539;48.752;12.922;2023-10-13T12:48:28;24.80;93.60
78289;DHT22;67539;48.752;12.922;2023-10-13T12:51:14;24.90;93.70
78289;DHT22;67539;48.752;12.922;2023-10-13T12:53:48;25.00;93.80
78289;DHT22;67539;48.752;12.922;2023-10-13T12:56:18;25.00;93.60
78289;DHT22;67539;48.752;12.922;2023-10-13T12:58:53;25.10;93.70
78289;DHT22;67539;48.752;12.922;2023-10-13T13:01:24;25.20;93.40
78289;DHT22;67539;48.752;12.922;2023-10-13T13:03:59;25.20;93.30
78289;DHT22;67539;48.752;12.922;2023-10-13T13:06:30;25.30;93.60
78289;DHT22;67539;48.752;12.922;2023-10-13T13:08:59;25.30;93.20
78289;DHT22;67539;48.752;12.922;2023-10-13T13:11:28;25.40;93.10
78289;DHT22;67539;48.752;12.922;2023-10-13T13:13:57;25.50;93.40
78289;DHT22;67539;48.752;12.922;2023-10-13T13:16:27;25.50;93.10
78289;DHT22;67539;48.752;12.922;2023-10-13T13:18:58;25.60;93.00
78289;DHT22;67539;48.752;12.922;2023-10-13T13:21:26;25.70;92.90
78289;DHT22;67539;48.752;12.922;2023-10-13T13:23:54;25.80;92.90
78289;DHT22;67539;48.752;12.922;2023-10-13T13:26:23;26.00;92.30
78289;DHT22;67539;48.752;12.922;2023-10-13T13:28:51;26.30;91.70
78289;DHT22;67539;48.752;12.922;2023-10-13T13:31:20;26.70;91.70
78289;DHT22;67539;48.752;12.922;2023-10-13T13:33:54;27.10;90.90
78289;DHT22;67539;48.752;12.922;2023-10-13T13:36:22;27.40;90.10
78289;DHT22;67539;48.752;12.922;2023-10-13T13:38:51;27.80;90.20
78289;DHT22;67539;48.752;12.922;2023-10-13T13:41:21;28.10;89.20
78289;DHT22;67539;48.752;12.922;2023-10-13T13:43:50;28.40;89.10
78289;DHT22;67539;48.752;12.922;2023-10-13T13:46:23;28.80;87.20
78289;DHT22;67539;48.752;12.922;2023-10-13T13:48:55;29.10;87.10
78289;DHT22;67539;48.752;12.922;2023-10-13T13:51:27;29.40;84.70
78289;DHT22;67539;48.752;12.922;2023-10-13T13:53:56;29.60;83.60
78289;DHT22;67539;48.752;12.922;2023-10-13T13:56:24;29.80;82.60
78289;DHT22;67539;48.752;12.922;2023-10-13T13:58:54;30.00;80.90
78289;DHT22;67539;48.752;12.922;2023-10-13T14:01:23;30.20;80.20
78289;DHT22;67539;48.752;12.922;2023-10-13T14:03:54;30.40;79.60
78289;DHT22;67539;48.752;12.922;2023-10-13T14:06:24;30.50;77.70
78289;DHT22;67539;48.752;12.922;2023-10-13T14:08:55;30.60;76.80
78289;DHT22;67539;48.752;12.922;2023-10-13T14:11:25;30.60;76.00
78289;DHT22;67539;48.752;12.922;2023-10-13T14:14:15;30.70;73.60
78289;DHT22;67539;48.752;12.922;2023-10-13T14:16:56;30.80;74.00
78289;DHT22;67539;48.752;12.922;2023-10-13T14:19:36;30.90;73.90
78289;DHT22;67539;48.752;12.922;2023-10-13T14:22:08;31.00;72.00
78289;DHT22;67539;48.752;12.922;2023-10-13T14:24:39;31.10;72.10
78289;DHT22;67539;48.752;12.922;2023-10-13T14:27:21;31.20;72.20
78289;DHT22;67539;48.752;12.922;2023-10-13T14:29:51;31.30;70.40
78289;DHT22;67539;48.752;12.922;2023-10-13T14:32:21;31.40;70.50
78289;DHT22;67539;48.752;12.922;2023-10-13T14:34:54;31.30;68.80
78289;DHT22;67539;48.752;12.922;2023-10-13T14:37:24;31.30;69.50
78289;DHT22;67539;48.752;12.922;2023-10-13T14:39:57;31.30;69.50
78289;DHT22;67539;48.752;12.922;2023-10-13T14:42:27;31.40;67.90
78289;DHT22;67539;48.752;12.922;2023-10-13T14:44:56;31.40;67.70
78289;DHT22;67539;48.752;12.922;2023-10-13T14:47:24;31.40;67.30
78289;DHT22;67539;48.752;12.922;2023-10-13T14:49:54;31.40;67.10
78289;DHT22;67539;48.752;12.922;2023-10-13T14:52:23;31.50;66.70
78289;DHT22;67539;48.752;12.922;2023-10-13T14:54:52;31.40;66.60
78289;DHT22;67539;48.752;12.922;2023-10-13T14:57:23;31.50;66.50
78289;DHT22;67539;48.752;12.922;2023-10-13T14:59:53;31.50;66.40
78289;DHT22;67539;48.752;12.922;2023-10-13T15:02:21;31.50;65.90
78289;DHT22;67539;48.752;12.922;2023-10-13T15:04:50;31.50;65.80
78289;DHT22;67539;48.752;12.922;2023-10-13T15:07:19;31.40;65.60
78289;DHT22;67539;48.752;12.922;2023-10-13T15:09:49;31.40;65.20
78289;DHT22;67539;48.752;12.922;2023-10-13T15:12:17;31.30;64.80
78289;DHT22;67539;48.752;12.922;2023-10-13T15:14:55;31.20;64.30
78289;DHT22;67539;48.752;12.922;2023-10-13T15:17:23;31.20;64.70
78289;DHT22;67539;48.752;12.922;2023-10-13T15:19:55;31.00;64.60
78289;DHT22;67539;48.752;12.922;2023-10-13T15:22:24;31.00;64.50
78289;DHT22;67539;48.752;12.922;2023-10-13T15:24:55;30.90;63.90
78289;DHT22;67539;48.752;12.922;2023-10-13T15:27:36;30.70;64.50
78289;DHT22;67539;48.752;12.922;2023-10-13T15:30:10;30.60;64.50
78289;DHT22;67539;48.752;12.922;2023-10-13T15:32:47;30.40;64.20
78289;DHT22;67539;48.752;12.922;2023-10-13T15:35:16;30.30;65.40
78289;DHT22;67539;48.752;12.922;2023-10-13T15:37:46;30.00;65.10
78289;DHT22;67539;48.752;12.922;2023-10-13T15:40:15;29.90;65.20
78289;DHT22;67539;48.752;12.922;2023-10-13T15:42:44;29.60;65.10
78289;DHT22;67539;48.752;12.922;2023-10-13T15:45:13;29.40;65.30
78289;DHT22;67539;48.752;12.922;2023-10-13T15:47:49;29.20;65.60
78289;DHT22;67539;48.752;12.922;2023-10-13T15:50:20;28.90;65.60
78289;DHT22;67539;48.752;12.922;2023-10-13T15:52:50;28.70;66.00
78289;DHT22;67539;48.752;12.922;2023-10-13T15:55:19;28.40;66.00
78289;DHT22;67539;48.752;12.922;2023-10-13T15:57:47;28.10;66.30
78289;DHT22;67539;48.752;12.922;2023-10-13T16:00:20;27.90;66.60
78289;DHT22;67539;48.752;12.922;2023-10-13T16:02:53;27.60;66.70
78289;DHT22;67539;48.752;12.922;2023-10-13T16:05:29;27.20;66.90
78289;DHT22;67539;48.752;12.922;2023-10-13T16:08:04;27.00;67.20